createdAt,value
2022-10-06T00:00:02.445Z,15.37
2022-10-06T00:05:24.457Z,15.30
2022-10-06T00:10:46.297Z,15.23
2022-10-06T00:16:18.237Z,15.17
2022-10-06T00:21:39.985Z,15.13
2022-10-06T00:27:01.796Z,15.16
2022-10-06T00:32:23.509Z,15.11
2022-10-06T00:37:45.238Z,15.06
2022-10-06T00:43:07.075Z,15.04
2022-10-06T00:48:31.347Z,15.10
2022-10-06T00:53:53.323Z,15.10
2022-10-06T00:59:17.769Z,15.18
2022-10-06T01:04:45.455Z,15.15
2022-10-06T01:10:07.654Z,15.07
2022-10-06T01:15:29.576Z,14.98
2022-10-06T01:21:00.879Z,15.00
2022-10-06T01:26:24.466Z,14.91
2022-10-06T01:31:46.309Z,14.89
2022-10-06T01:37:08.029Z,14.89
2022-10-06T01:42:32.915Z,14.86
2022-10-06T01:47:54.712Z,14.81
2022-10-06T01:53:17.126Z,14.71
2022-10-06T01:58:38.819Z,14.63
2022-10-06T02:04:00.617Z,14.54
2022-10-06T02:09:23.427Z,14.55
2022-10-06T02:14:45.112Z,14.57
2022-10-06T02:20:07.114Z,14.51
2022-10-06T02:25:28.773Z,14.47
2022-10-06T02:30:50.482Z,14.55
2022-10-06T02:36:14.267Z,14.62
2022-10-06T02:41:35.924Z,14.42
2022-10-06T02:46:57.640Z,14.39
2022-10-06T02:52:19.504Z,14.38
2022-10-06T02:57:41.164Z,14.29
2022-10-06T03:03:02.950Z,14.30
2022-10-06T03:08:24.724Z,14.36
2022-10-06T03:13:47.353Z,14.28
2022-10-06T03:19:10.414Z,14.20
2022-10-06T03:24:32.390Z,14.24
2022-10-06T03:29:54.052Z,14.19
2022-10-06T03:35:15.794Z,13.99
2022-10-06T03:40:37.470Z,13.84
2022-10-06T03:46:02.812Z,13.68
2022-10-06T03:51:27.177Z,13.77
2022-10-06T03:56:48.866Z,13.75
2022-10-06T04:02:11.322Z,13.87
2022-10-06T04:07:33.011Z,13.85
2022-10-06T04:12:54.669Z,13.81
2022-10-06T04:18:17.249Z,13.95
2022-10-06T04:23:39.037Z,13.97
2022-10-06T04:29:00.728Z,14.08
2022-10-06T04:34:22.402Z,14.10
2022-10-06T04:39:44.110Z,14.01
2022-10-06T04:45:06.791Z,13.88
2022-10-06T04:50:28.500Z,13.87
2022-10-06T04:56:06.110Z,13.94
2022-10-06T05:01:33.489Z,14.06
2022-10-06T05:06:55.163Z,14.06
2022-10-06T05:12:16.843Z,14.11
2022-10-06T05:17:38.542Z,14.12
2022-10-06T05:23:00.244Z,14.16
2022-10-06T05:28:23.655Z,14.06
2022-10-06T05:33:45.959Z,14.13
2022-10-06T05:39:07.689Z,14.13
2022-10-06T05:44:29.378Z,14.20
2022-10-06T05:49:51.143Z,14.20
2022-10-06T05:55:12.888Z,14.19
2022-10-06T06:00:34.965Z,14.22
2022-10-06T06:05:56.651Z,14.29
2022-10-06T06:11:18.644Z,14.39
2022-10-06T06:16:42.134Z,14.49
2022-10-06T06:22:03.850Z,14.53
2022-10-06T06:27:26.175Z,14.52
2022-10-06T06:32:47.850Z,14.56
2022-10-06T06:38:11.681Z,14.62
2022-10-06T06:43:33.418Z,14.65
2022-10-06T06:48:55.605Z,14.63
2022-10-06T06:54:18.152Z,14.76
2022-10-06T06:59:39.807Z,14.78
2022-10-06T07:05:01.480Z,14.75
2022-10-06T07:10:23.137Z,14.71
2022-10-06T07:16:07.649Z,14.72
2022-10-06T07:21:47.748Z,14.73
2022-10-06T07:27:09.963Z,14.84
2022-10-06T07:32:31.787Z,14.98
2022-10-06T07:37:53.579Z,15.11
2022-10-06T07:43:15.429Z,15.24
2022-10-06T07:48:38.223Z,15.31
2022-10-06T07:54:01.021Z,15.30
2022-10-06T07:59:22.685Z,15.39
2022-10-06T08:04:44.350Z,15.43
2022-10-06T08:10:06.485Z,15.50
2022-10-06T08:15:28.164Z,15.56
2022-10-06T08:20:49.899Z,15.56
2022-10-06T08:26:13.339Z,15.63
2022-10-06T08:31:35.035Z,15.66
2022-10-06T08:37:15.894Z,15.58
2022-10-06T08:42:42.525Z,15.59
2022-10-06T08:48:10.410Z,15.63
2022-10-06T08:53:36.385Z,15.67
2022-10-06T08:59:04.075Z,15.70
2022-10-06T09:04:29.461Z,15.65
2022-10-06T09:10:12.949Z,15.63
2022-10-06T09:15:43.219Z,15.68
2022-10-06T09:21:14.140Z,15.66
2022-10-06T09:26:35.992Z,15.71
2022-10-06T09:31:57.821Z,15.77
2022-10-06T09:37:19.608Z,15.80
2022-10-06T09:42:44.534Z,15.80
2022-10-06T09:48:23.903Z,15.85
2022-10-06T09:54:16.957Z,15.91
2022-10-06T09:59:43.364Z,15.96
2022-10-06T10:05:27.031Z,15.97
2022-10-06T10:11:31.262Z,16.04
2022-10-06T10:16:53.510Z,16.02
2022-10-06T10:22:23.138Z,15.99
2022-10-06T10:28:17.376Z,15.99
2022-10-06T10:33:54.161Z,15.97
2022-10-06T10:39:42.033Z,15.77
2022-10-06T10:45:16.746Z,15.89
2022-10-06T10:50:51.653Z,15.99
2022-10-06T10:56:16.183Z,16.07
2022-10-06T11:01:45.350Z,16.12
2022-10-06T11:07:31.983Z,16.14
2022-10-06T11:13:19.010Z,16.11
2022-10-06T11:19:20.931Z,16.25
2022-10-06T11:24:59.491Z,16.30
2022-10-06T11:30:26.366Z,16.34
2022-10-06T11:35:49.077Z,16.36
2022-10-06T11:41:23.016Z,16.38
2022-10-06T11:47:01.684Z,16.40
2022-10-06T11:52:23.282Z,16.55
2022-10-06T12:04:09.366Z,16.93
2022-10-06T12:09:45.991Z,17.02
2022-10-06T12:21:06.175Z,16.87
2022-10-06T12:26:59.080Z,16.80
2022-10-06T12:32:56.114Z,16.80
2022-10-06T12:38:41.253Z,16.77
2022-10-06T12:44:05.277Z,16.76
2022-10-06T12:49:36.900Z,16.76
2022-10-06T12:55:20.994Z,16.79
2022-10-06T13:00:43.661Z,16.79
2022-10-06T13:06:08.509Z,16.80
2022-10-06T13:11:30.248Z,16.76
2022-10-06T13:16:52.029Z,16.74
2022-10-06T13:22:14.374Z,16.80
2022-10-06T13:27:36.358Z,16.86
2022-10-06T13:32:59.001Z,16.84
2022-10-06T13:38:21.538Z,16.87
2022-10-06T13:43:47.285Z,16.87
2022-10-06T13:49:24.611Z,16.85
2022-10-06T13:54:50.127Z,16.83
2022-10-06T14:00:16.215Z,16.89
2022-10-06T14:05:40.584Z,16.91
2022-10-06T14:11:06.729Z,16.92
2022-10-06T14:16:29.450Z,17.00
2022-10-06T14:21:51.308Z,17.04
2022-10-06T14:27:12.974Z,17.05
2022-10-06T14:32:38.496Z,17.07
2022-10-06T14:38:00.199Z,17.10
2022-10-06T14:43:21.925Z,17.15
2022-10-06T14:48:43.641Z,17.21
2022-10-06T14:54:07.446Z,17.22
2022-10-06T14:59:29.123Z,17.15
2022-10-06T15:04:50.850Z,17.04
2022-10-06T15:10:12.585Z,16.98
2022-10-06T15:15:34.712Z,16.97
2022-10-06T15:21:02.763Z,16.96
2022-10-06T15:26:43.820Z,16.90
2022-10-06T15:32:06.473Z,16.73
2022-10-06T15:37:28.574Z,16.71
2022-10-06T15:42:50.805Z,16.75
2022-10-06T15:48:12.627Z,16.80
2022-10-06T15:53:34.302Z,16.71
2022-10-06T15:58:56.004Z,16.76
2022-10-06T16:04:34.998Z,16.70
2022-10-06T16:09:56.748Z,16.66
2022-10-06T16:15:18.410Z,16.52
2022-10-06T16:20:40.065Z,16.39
2022-10-06T16:26:02.195Z,16.36
2022-10-06T16:31:24.138Z,16.47
2022-10-06T16:36:46.057Z,16.52
2022-10-06T16:42:07.718Z,16.51
2022-10-06T16:47:29.418Z,16.28
2022-10-06T16:52:51.123Z,16.12
2022-10-06T16:58:12.797Z,16.07
2022-10-06T17:03:34.558Z,16.09
2022-10-06T17:08:56.585Z,16.05
2022-10-06T17:14:19.593Z,16.00
2022-10-06T17:19:41.273Z,16.10
2022-10-06T17:25:03.049Z,16.10
2022-10-06T17:30:24.743Z,16.05
2022-10-06T17:35:46.407Z,16.15
2022-10-06T17:41:17.043Z,16.04
2022-10-06T17:46:43.876Z,15.91
2022-10-06T17:52:05.786Z,15.91
2022-10-06T17:57:29.620Z,15.92
2022-10-06T18:03:00.130Z,16.01
2022-10-06T18:08:25.271Z,16.01
2022-10-06T18:13:47.994Z,15.98
2022-10-06T18:19:13.138Z,15.84
2022-10-06T18:24:34.796Z,15.80
2022-10-06T18:29:56.450Z,15.82
2022-10-06T18:41:03.451Z,15.72
2022-10-06T18:46:45.366Z,15.57
2022-10-06T18:52:07.161Z,15.54
2022-10-06T18:57:28.887Z,15.49
2022-10-06T19:02:52.039Z,15.35
2022-10-06T19:08:13.798Z,15.35
2022-10-06T19:13:37.118Z,15.35
2022-10-06T19:18:58.948Z,15.28
2022-10-06T19:24:21.586Z,15.20
2022-10-06T19:29:46.856Z,15.13
2022-10-06T19:35:10.534Z,15.09
2022-10-06T19:40:32.641Z,15.06
2022-10-06T19:45:57.955Z,15.04
2022-10-06T19:51:19.942Z,14.96
2022-10-06T19:56:42.007Z,14.99
2022-10-06T20:02:09.695Z,14.93
2022-10-06T20:07:31.405Z,14.87
2022-10-06T20:12:53.164Z,14.84
2022-10-06T20:18:15.767Z,14.77
2022-10-06T20:23:37.480Z,14.69
2022-10-06T20:29:01.497Z,14.66
2022-10-06T20:34:25.754Z,14.57
2022-10-06T20:40:06.184Z,14.54
2022-10-06T20:45:29.643Z,14.57
2022-10-06T20:50:51.369Z,14.54
2022-10-06T20:56:13.800Z,14.57
2022-10-06T21:01:37.348Z,14.61
2022-10-06T21:06:59.529Z,14.70
2022-10-06T21:12:21.492Z,14.73
2022-10-06T21:17:47.827Z,14.73
2022-10-06T21:23:10.195Z,14.71
2022-10-06T21:28:32.243Z,14.63
2022-10-06T21:33:55.287Z,14.63
2022-10-06T21:39:17.329Z,14.59
2022-10-06T21:44:39.307Z,14.52
2022-10-06T21:50:01.195Z,14.54
2022-10-06T21:55:23.154Z,14.43
2022-10-06T22:00:45.017Z,14.36
2022-10-06T22:06:09.445Z,14.25
2022-10-06T22:11:36.888Z,14.33
2022-10-06T22:16:58.828Z,14.30
2022-10-06T22:22:20.832Z,14.32
2022-10-06T22:27:42.876Z,14.19
2022-10-06T22:33:04.969Z,14.19
2022-10-06T22:38:27.231Z,14.12
2022-10-06T22:43:52.092Z,14.01
2022-10-06T22:49:13.945Z,14.02
2022-10-06T22:54:35.792Z,14.08
2022-10-06T22:59:57.719Z,14.02
2022-10-06T23:05:19.592Z,14.00
2022-10-06T23:10:41.825Z,13.99
2022-10-06T23:16:11.101Z,14.03
2022-10-06T23:21:33.311Z,13.89
2022-10-06T23:26:58.104Z,13.94
2022-10-06T23:32:19.965Z,13.94
2022-10-06T23:37:42.131Z,13.91
2022-10-06T23:43:04.317Z,13.94
2022-10-06T23:48:26.332Z,13.88
2022-10-06T23:53:48.222Z,13.94
2022-10-06T23:59:10.135Z,13.93
